Time;durP1;ratioP1;P1;durP2;ratioP2;P2;SDS_P1;SDS_P2;PMS_P1;PMS_P2;Temp;Humidity;BMP_temperature;BMP_pressure;BME280_temperature;BME280_humidity;BME280_pressure;Samples;Min_cycle;Max_cycle;Signal;HPM_P1;HPM_P2
2024/02/07 00:02:29;;;;;;;13.05;7.10;;;;;;;7.24;100.00;98977.56;10437988;28;20112;-78
2024/02/07 00:07:32;;;;;;;11.15;6.97;;;;;;;7.37;100.00;98974.63;10442218;28;20045;-78
2024/02/07 00:12:37;;;;;;;14.18;8.18;;;;;;;7.54;100.00;98962.41;10425485;28;20056;-78
2024/02/07 00:17:41;;;;;;;10.75;7.90;;;;;;;7.27;100.00;98926.56;10429177;28;20125;-78
2024/02/07 00:22:44;;;;;;;16.50;6.93;;;;;;;7.50;100.00;98954.69;10438845;28;20697;-78
2024/02/07 00:27:48;;;;;;;10.43;7.35;;;;;;;7.34;100.00;98949.03;10453231;28;20052;-78
2024/02/07 00:32:51;;;;;;;11.15;6.45;;;;;;;7.26;100.00;98904.31;10478808;28;20055;-79
2024/02/07 00:37:54;;;;;;;12.07;7.50;;;;;;;7.38;100.00;98937.13;10464053;28;20060;-79
2024/02/07 00:42:59;;;;;;;12.75;5.85;;;;;;;7.36;100.00;98940.91;10450153;28;20098;-79
2024/02/07 00:48:02;;;;;;;16.85;8.35;;;;;;;7.41;100.00;98939.50;10443818;28;20052;-79
2024/02/07 00:53:05;;;;;;;14.18;8.50;;;;;;;7.99;100.00;98976.06;10436522;28;20048;-79
2024/02/07 00:58:09;;;;;;;2.40;1.00;;;;;;;7.86;100.00;98997.75;10447685;28;20049;-79
2024/02/07 01:03:12;;;;;;;2.92;1.20;;;;;;;6.74;100.00;98999.69;10428246;28;20114;-79
2024/02/07 01:08:15;;;;;;;2.33;0.60;;;;;;;6.11;100.00;99009.56;10424135;28;20052;-79
2024/02/07 01:13:20;;;;;;;1.35;0.40;;;;;;;5.99;100.00;99027.44;10441263;28;20049;-79
2024/02/07 01:18:23;;;;;;;1.75;0.50;;;;;;;5.94;100.00;99026.97;10437539;28;20059;-79
2024/02/07 01:23:26;;;;;;;1.10;0.50;;;;;;;5.94;100.00;99022.50;10435429;28;20048;-80
2024/02/07 01:28:31;;;;;;;2.85;0.50;;;;;;;5.67;100.00;99030.13;10437969;28;20036;-79
2024/02/07 01:33:35;;;;;;;5.05;0.40;;;;;;;5.73;100.00;99027.81;10436160;28;20147;-79
2024/02/07 01:38:38;;;;;;;1.52;0.40;;;;;;;5.42;100.00;99048.09;10401051;28;20061;-79
2024/02/07 01:43:42;;;;;;;1.27;0.47;;;;;;;5.40;100.00;99055.38;10396520;28;20060;-79
2024/02/07 01:48:46;;;;;;;1.92;0.40;;;;;;;5.46;100.00;99054.88;10444702;28;20068;-80
2024/02/07 01:53:49;;;;;;;4.45;0.40;;;;;;;5.26;100.00;99059.13;10453900;28;20537;-79
2024/02/07 01:58:55;;;;;;;2.35;0.50;;;;;;;5.04;100.00;99070.63;10453780;28;20044;-80
2024/02/07 02:03:59;;;;;;;3.33;0.68;;;;;;;4.27;100.00;99077.50;10448336;28;20041;-80
2024/02/07 02:09:05;;;;;;;10.32;1.27;;;;;;;3.84;100.00;99081.56;10453080;28;20059;-79
2024/02/07 02:14:09;;;;;;;7.15;0.90;;;;;;;3.75;100.00;99087.53;10447016;28;20131;-80
2024/02/07 02:19:13;;;;;;;9.27;1.20;;;;;;;3.64;100.00;99072.38;10439791;28;20053;-79
2024/02/07 02:24:37;;;;;;;7.68;1.02;;;;;;;4.23;100.00;99092.84;10445908;28;20044;-80
2024/02/07 02:29:53;;;;;;;8.18;1.10;;;;;;;4.11;100.00;99105.25;10427724;28;20618;-80
2024/02/07 02:34:58;;;;;;;8.95;1.20;;;;;;;4.17;100.00;99098.63;10462152;28;20052;-79
2024/02/07 02:40:05;;;;;;;6.30;1.00;;;;;;;4.04;100.00;99097.84;10450900;28;20052;-79
2024/02/07 02:45:10;;;;;;;15.98;1.45;;;;;;;4.15;100.00;99101.38;10455657;28;20055;-78
2024/02/07 02:50:15;;;;;;;11.73;1.45;;;;;;;3.48;100.00;99099.22;10442469;28;20053;-79
2024/02/07 02:55:19;;;;;;;8.80;1.00;;;;;;;3.75;100.00;99106.13;10447479;28;20419;-79
2024/02/07 03:00:23;;;;;;;6.65;1.02;;;;;;;3.21;100.00;99111.78;10433471;28;20854;-78
2024/02/07 03:05:45;;;;;;;6.57;1.15;;;;;;;3.89;100.00;99105.13;10433200;28;20049;-78
2024/02/07 03:11:24;;;;;;;4.18;1.25;;;;;;;3.59;100.00;99109.03;10440832;28;20049;-78
2024/02/07 03:16:28;;;;;;;4.03;1.30;;;;;;;3.90;100.00;99115.66;10434909;28;20052;-78
2024/02/07 03:21:31;;;;;;;8.18;1.60;;;;;;;4.06;100.00;99114.50;10443929;28;20048;-79
2024/02/07 03:26:34;;;;;;;4.43;1.33;;;;;;;3.76;100.00;99110.50;10453386;28;20050;-79
2024/02/07 03:31:39;;;;;;;4.68;1.38;;;;;;;3.79;100.00;99120.06;10443207;28;20609;-78
2024/02/07 03:36:42;;;;;;;6.38;1.58;;;;;;;3.34;100.00;99125.88;10438010;28;20047;-78
2024/02/07 03:41:46;;;;;;;5.07;1.17;;;;;;;3.53;100.00;99125.44;10431237;28;20056;-79
2024/02/07 03:46:50;;;;;;;3.90;1.80;;;;;;;3.58;100.00;99135.72;10435960;28;20048;-78
2024/02/07 03:51:53;;;;;;;9.02;2.75;;;;;;;3.23;100.00;99128.47;10443274;28;20045;-77
2024/02/07 03:56:56;;;;;;;6.10;2.65;;;;;;;3.25;100.00;99131.84;10431494;28;20076;-77
2024/02/07 04:02:00;;;;;;;5.07;1.88;;;;;;;2.89;100.00;99145.91;10437724;28;20464;-79
2024/02/07 04:07:03;;;;;;;11.95;2.83;;;;;;;2.56;100.00;99153.38;10432052;28;20071;-79
2024/02/07 05:15:58;;;;;;;4.63;1.02;;;;;;;1.56;100.00;99201.34;10400754;28;20047;-79
2024/02/07 05:21:03;;;;;;;6.05;0.93;;;;;;;1.27;100.00;99209.31;10384041;28;20421;-79
2024/02/07 05:26:06;;;;;;;6.72;1.13;;;;;;;1.83;100.00;99212.00;10383037;28;20049;-79
2024/02/07 05:31:10;;;;;;;4.50;1.23;;;;;;;1.79;100.00;99202.56;10403476;28;20063;-79
2024/02/07 05:36:15;;;;;;;6.30;0.88;;;;;;;1.55;100.00;99201.47;10436619;28;20131;-79
2024/02/07 05:41:18;;;;;;;6.40;1.30;;;;;;;1.22;100.00;99202.59;10488823;28;20163;-79
2024/02/07 05:46:21;;;;;;;2.40;0.60;;;;;;;1.57;100.00;99203.06;10489505;28;20052;-79
2024/02/07 05:51:26;;;;;;;4.88;0.82;;;;;;;1.53;100.00;99216.56;10511800;28;20071;-81
2024/02/07 05:56:29;;;;;;;5.43;1.23;;;;;;;1.64;100.00;99216.75;10510901;28;20095;-79
2024/02/07 06:01:32;;;;;;;6.15;1.30;;;;;;;1.77;100.00;99211.56;10493426;28;20048;-79
2024/02/07 06:06:37;;;;;;;5.82;1.33;;;;;;;1.48;100.00;99208.91;10495593;28;20083;-80
2024/02/07 06:11:41;;;;;;;6.45;1.30;;;;;;;1.70;100.00;99200.47;10499979;28;20041;-79
2024/02/07 06:16:44;;;;;;;3.20;1.00;;;;;;;1.85;100.00;99209.25;10485792;28;20433;-78
2024/02/07 06:21:51;;;;;;;2.85;0.93;;;;;;;1.52;100.00;99220.19;10494819;28;20037;-80
2024/02/07 06:26:54;;;;;;;5.60;1.67;;;;;;;1.63;100.00;99239.72;10488620;28;20053;-79
2024/02/07 06:31:58;;;;;;;3.03;1.30;;;;;;;1.41;100.00;99239.38;10458540;28;20048;-77
2024/02/07 06:37:02;;;;;;;2.38;1.25;;;;;;;1.52;100.00;99258.06;10448698;28;20470;-77
2024/02/07 06:42:06;;;;;;;5.25;1.15;;;;;;;0.98;100.00;99271.88;10454670;28;21490;-77
2024/02/07 06:47:11;;;;;;;3.08;1.20;;;;;;;1.00;100.00;99282.38;10481189;28;20052;-78
2024/02/07 06:52:15;;;;;;;1.95;1.50;;;;;;;1.13;100.00;99285.16;10497426;28;20056;-79
2024/02/07 06:57:18;;;;;;;4.15;2.60;;;;;;;1.39;100.00;99295.00;10468545;28;21177;-78
2024/02/07 07:02:21;;;;;;;7.70;2.47;;;;;;;0.92;100.00;99298.69;10429886;28;20052;-78
2024/02/07 07:07:25;;;;;;;6.60;3.50;;;;;;;1.33;100.00;99308.63;10442392;28;20128;-78
2024/02/07 07:12:31;;;;;;;5.15;2.25;;;;;;;1.09;100.00;99303.00;10431215;28;20185;-77
2024/02/07 07:17:34;;;;;;;8.68;3.30;;;;;;;1.12;100.00;99316.03;10458471;28;20080;-78
2024/02/07 07:22:38;;;;;;;6.18;3.47;;;;;;;1.28;100.00;99329.22;10490033;28;20075;-78
2024/02/07 07:27:41;;;;;;;6.40;2.67;;;;;;;1.09;100.00;99332.09;10495239;28;20047;-78
2024/02/07 07:32:44;;;;;;;13.35;3.75;;;;;;;1.33;100.00;99336.88;10486996;28;20053;-78
2024/02/07 07:37:48;;;;;;;12.50;4.95;;;;;;;1.20;100.00;99327.00;10480447;28;20353;-78
2024/02/07 07:42:52;;;;;;;12.65;5.80;;;;;;;1.10;100.00;99348.81;10486654;28;20048;-78
2024/02/07 07:47:56;;;;;;;13.18;5.18;;;;;;;1.28;100.00;99353.88;10470408;28;20048;-77
2024/02/07 07:53:01;;;;;;;9.95;5.30;;;;;;;1.19;100.00;99358.88;10462878;28;20088;-78
2024/02/07 07:58:04;;;;;;;10.35;5.60;;;;;;;1.38;100.00;99353.34;10458843;28;20087;-78
2024/02/07 08:03:07;;;;;;;9.70;5.22;;;;;;;1.88;100.00;99360.03;10450692;28;20052;-77
2024/02/07 08:08:11;;;;;;;17.02;5.32;;;;;;;1.59;100.00;99373.25;10419757;28;20036;-77
2024/02/07 08:13:15;;;;;;;8.50;4.32;;;;;;;1.58;100.00;99384.75;10426011;28;20045;-78
2024/02/07 08:18:18;;;;;;;10.60;4.85;;;;;;;1.83;100.00;99375.34;10408746;28;20053;-77
2024/02/07 08:23:22;;;;;;;5.85;3.90;;;;;;;1.73;100.00;99393.59;10411331;28;20060;-77
2024/02/07 08:28:25;;;;;;;8.75;4.22;;;;;;;1.98;100.00;99381.50;10422006;28;20477;-77
2024/02/07 08:33:28;;;;;;;13.65;4.35;;;;;;;1.78;100.00;99391.50;10433105;28;20060;-77
2024/02/07 08:38:33;;;;;;;12.07;6.32;;;;;;;2.05;100.00;99382.81;10417116;28;20076;-77
2024/02/07 08:43:36;;;;;;;13.90;4.70;;;;;;;2.10;100.00;99381.56;10437303;28;20060;-76
2024/02/07 08:48:39;;;;;;;6.63;4.00;;;;;;;1.67;100.00;99394.81;10428927;28;20041;-76
2024/02/07 08:53:43;;;;;;;17.60;5.13;;;;;;;1.72;100.00;99390.06;10401804;28;20139;-76
2024/02/07 08:58:46;;;;;;;14.98;5.43;;;;;;;1.99;100.00;99389.34;10428971;28;20134;-76
2024/02/07 09:03:49;;;;;;;12.27;5.70;;;;;;;2.01;100.00;99384.81;10426542;28;20040;-77
2024/02/07 09:08:53;;;;;;;13.80;6.70;;;;;;;2.34;100.00;99381.84;10439240;28;20919;-79
2024/02/07 09:13:57;;;;;;;16.15;5.70;;;;;;;2.19;100.00;99377.50;10439885;28;20162;-77
2024/02/07 09:19:00;;;;;;;15.07;6.63;;;;;;;2.29;100.00;99391.03;10435616;28;20617;-78
2024/02/07 09:24:06;;;;;;;17.45;7.68;;;;;;;2.46;100.00;99395.28;10426424;28;21257;-78
2024/02/07 09:29:09;;;;;;;17.42;7.30;;;;;;;2.51;100.00;99399.34;10437736;28;20056;-78
2024/02/07 09:34:12;;;;;;;16.80;7.32;;;;;;;2.46;100.00;99400.59;10434464;28;20559;-78
2024/02/07 09:39:19;;;;;;;26.20;8.70;;;;;;;2.85;100.00;99402.50;10434044;28;20107;-78
2024/02/07 09:44:25;;;;;;;20.15;8.48;;;;;;;2.68;100.00;99405.41;10429311;28;20053;-76
2024/02/07 09:49:29;;;;;;;22.65;8.18;;;;;;;2.52;100.00;99416.09;10462932;28;20040;-77
2024/02/07 09:54:33;;;;;;;21.50;8.43;;;;;;;2.61;100.00;99431.47;10470152;28;20052;-78
2024/02/07 09:59:37;;;;;;;24.10;8.18;;;;;;;2.71;100.00;99429.06;10421606;28;20048;-78
2024/02/07 10:04:46;;;;;;;17.85;9.15;;;;;;;2.86;100.00;99445.81;10435384;28;20153;-78
2024/02/07 10:09:52;;;;;;;25.38;9.00;;;;;;;2.81;100.00;99454.06;10434178;28;20048;-77
2024/02/07 10:14:56;;;;;;;24.05;7.75;;;;;;;2.81;100.00;99457.56;10433657;28;20045;-78
2024/02/07 10:19:59;;;;;;;17.10;7.45;;;;;;;2.81;100.00;99465.53;10442051;28;20094;-79
2024/02/07 10:25:10;;;;;;;16.13;7.78;;;;;;;2.89;100.00;99457.09;10448991;28;20049;-78
2024/02/07 10:30:14;;;;;;;17.17;6.53;;;;;;;2.86;100.00;99459.94;10447525;28;20427;-78
2024/02/07 10:35:18;;;;;;;15.10;7.38;;;;;;;2.92;100.00;99440.97;10433800;28;20048;-77
2024/02/07 10:40:23;;;;;;;20.27;6.32;;;;;;;3.11;100.00;99440.63;10455410;28;20045;-77
2024/02/07 10:45:26;;;;;;;17.58;7.15;;;;;;;3.09;100.00;99445.19;10435874;28;20101;-77
2024/02/07 10:50:29;;;;;;;14.68;6.85;;;;;;;3.19;100.00;99448.94;10435507;28;20052;-78
2024/02/07 10:55:34;;;;;;;10.27;5.32;;;;;;;3.08;100.00;99450.59;10440743;28;20062;-78
2024/02/07 11:00:37;;;;;;;19.85;7.28;;;;;;;3.37;100.00;99459.28;10445591;28;20536;-78
2024/02/07 11:05:41;;;;;;;15.60;6.53;;;;;;;3.08;100.00;99454.09;10431917;28;20056;-77
2024/02/07 11:10:46;;;;;;;17.67;7.35;;;;;;;3.28;100.00;99472.22;10430340;28;20187;-77
2024/02/07 11:15:49;;;;;;;14.13;7.13;;;;;;;3.26;100.00;99471.50;10431317;28;20048;-79
2024/02/07 11:20:54;;;;;;;25.52;6.20;;;;;;;3.22;100.00;99447.91;10460842;28;20045;-78
2024/02/07 11:26:00;;;;;;;18.98;6.13;;;;;;;3.04;100.00;99455.22;10431112;28;21115;-78
2024/02/07 11:31:03;;;;;;;13.40;4.20;;;;;;;3.09;100.00;99460.25;10416973;28;20048;-78
2024/02/07 11:36:07;;;;;;;23.75;6.55;;;;;;;3.11;100.00;99437.97;10453830;28;20060;-78
2024/02/07 11:41:17;;;;;;;18.70;6.10;;;;;;;3.48;100.00;99436.41;10444399;28;20057;-77
2024/02/07 11:46:22;;;;;;;20.77;5.90;;;;;;;3.71;100.00;99439.31;10434870;28;20659;-78
2024/02/07 11:51:25;;;;;;;16.38;5.80;;;;;;;3.63;100.00;99439.00;10431685;28;20060;-77
2024/02/07 11:56:31;;;;;;;18.30;4.90;;;;;;;3.83;100.00;99438.47;10413641;28;20424;-80
2024/02/07 12:01:34;;;;;;;17.58;5.50;;;;;;;3.65;100.00;99439.75;10418239;28;20060;-78
2024/02/07 12:06:37;;;;;;;15.70;5.22;;;;;;;3.70;100.00;99448.22;10417188;28;20122;-79
2024/02/07 12:11:42;;;;;;;19.85;5.15;;;;;;;3.44;100.00;99437.56;10417689;28;20049;-79
2024/02/07 12:16:45;;;;;;;13.48;5.00;;;;;;;3.49;100.00;99438.09;10420567;28;20122;-81
2024/02/07 12:21:48;;;;;;;19.42;6.40;;;;;;;3.69;100.00;99450.03;10415184;28;20048;-79
2024/02/07 12:26:53;;;;;;;18.10;5.45;;;;;;;3.84;100.00;99457.91;10419452;28;20045;-80
2024/02/07 12:31:59;;;;;;;13.85;4.78;;;;;;;3.56;100.00;99451.81;10431176;28;20420;-81
2024/02/07 12:37:02;;;;;;;12.45;5.10;;;;;;;3.59;100.00;99443.63;10417461;28;20049;-80
2024/02/07 12:42:14;;;;;;;18.58;5.63;;;;;;;3.64;100.00;99446.84;10418964;28;20666;-80
2024/02/07 12:47:20;;;;;;;18.03;5.40;;;;;;;3.98;100.00;99446.34;10413149;28;20187;-80
2024/02/07 12:52:24;;;;;;;25.98;6.22;;;;;;;4.18;100.00;99443.19;10374464;28;20284;-80
2024/02/07 12:57:30;;;;;;;19.77;5.38;;;;;;;5.32;100.00;99421.75;10375535;28;20056;-80
2024/02/07 13:02:33;;;;;;;15.30;5.05;;;;;;;5.47;100.00;99426.78;10374824;28;20045;-80
2024/02/07 13:07:36;;;;;;;13.93;4.40;;;;;;;6.61;100.00;99429.53;10374588;28;20041;-81
2024/02/07 13:12:41;;;;;;;12.75;3.78;;;;;;;7.09;100.00;99419.53;10375135;28;20052;-81
2024/02/07 13:17:44;;;;;;;16.48;4.22;;;;;;;5.88;100.00;99420.13;10374096;28;20511;-79
2024/02/07 13:22:49;;;;;;;14.30;3.97;;;;;;;5.56;99.55;99409.25;10375531;28;20125;-79
2024/02/07 13:27:55;;;;;;;15.32;4.30;;;;;;;5.23;100.00;99425.94;10430524;28;20059;-79
2024/02/07 13:32:58;;;;;;;16.42;3.65;;;;;;;5.13;100.00;99422.25;10455740;28;20045;-83
2024/02/07 13:38:02;;;;;;;17.27;4.10;;;;;;;4.97;100.00;99422.53;10438579;28;20049;-81
2024/02/07 13:43:07;;;;;;;18.65;4.03;;;;;;;4.84;100.00;99417.22;10448132;28;20496;-80
2024/02/07 13:48:10;;;;;;;21.63;4.90;;;;;;;4.74;100.00;99418.84;10453524;28;20049;-80
2024/02/07 13:53:13;;;;;;;16.17;4.20;;;;;;;4.84;100.00;99415.41;10446884;28;20053;-79
2024/02/07 13:58:18;;;;;;;16.67;5.15;;;;;;;4.94;100.00;99412.09;10438265;28;20060;-81
2024/02/07 14:03:22;;;;;;;18.48;4.35;;;;;;;4.97;100.00;99418.03;10385949;28;20468;-80
2024/02/07 14:08:25;;;;;;;23.25;4.18;;;;;;;5.14;100.00;99416.00;10384335;28;20127;-82
2024/02/07 14:13:30;;;;;;;16.27;4.15;;;;;;;5.98;99.25;99411.41;10407538;28;20049;-81
2024/02/07 14:18:32;;;;;;;9.10;3.35;;;;;;;6.00;99.46;99418.31;10406494;28;20049;-79
2024/02/07 14:23:37;;;;;;;12.25;3.47;;;;;;;5.90;96.21;99412.88;10419387;28;20045;-79
2024/02/07 14:28:41;;;;;;;24.55;5.70;;;;;;;5.78;95.47;99403.13;10411579;28;20057;-79
2024/02/07 14:33:45;;;;;;;20.10;4.43;;;;;;;5.89;98.99;99404.97;10407438;28;20048;-81
2024/02/07 14:38:48;;;;;;;13.50;4.15;;;;;;;5.63;97.84;99401.66;10399665;28;21037;-81
2024/02/07 14:43:53;;;;;;;11.52;3.55;;;;;;;5.79;100.00;99412.84;10411831;28;20038;-83
2024/02/07 14:48:56;;;;;;;16.98;4.05;;;;;;;5.64;99.76;99416.66;10381692;28;20042;-81
2024/02/07 14:53:59;;;;;;;15.68;3.47;;;;;;;5.52;94.58;99413.13;10388338;28;20062;-83
2024/02/07 14:59:04;;;;;;;18.65;3.50;;;;;;;5.70;100.00;99424.19;10395418;28;20061;-83
2024/02/07 15:04:13;;;;;;;9.38;2.05;;;;;;;5.68;100.00;99421.66;10379157;28;20130;-81
2024/02/07 15:09:16;;;;;;;13.77;2.08;;;;;;;5.63;95.17;99410.50;10417488;28;20792;-83
2024/02/07 15:14:21;;;;;;;10.13;1.55;;;;;;;5.61;100.00;99414.25;10411883;28;21236;-82
2024/02/07 15:19:24;;;;;;;11.77;2.00;;;;;;;5.45;96.84;99420.72;10441919;28;20076;-80
2024/02/07 15:24:27;;;;;;;9.38;2.20;;;;;;;5.39;98.99;99420.34;10450129;28;20049;-80
2024/02/07 15:29:31;;;;;;;16.90;2.83;;;;;;;5.27;100.00;99417.63;10418730;28;20044;-82
2024/02/07 15:34:34;;;;;;;12.57;1.88;;;;;;;5.15;99.69;99425.66;10447391;28;20527;-82
2024/02/07 15:39:37;;;;;;;10.10;1.77;;;;;;;4.90;93.64;99408.78;10423027;28;20053;-79
2024/02/07 15:44:45;;;;;;;13.88;1.65;;;;;;;4.96;97.72;99411.00;10424391;28;20052;-83
2024/02/07 15:49:48;;;;;;;8.95;2.17;;;;;;;4.97;100.00;99409.22;10438082;28;20085;-83
2024/02/07 15:54:51;;;;;;;12.30;2.10;;;;;;;4.89;100.00;99415.09;10435541;28;20170;-80
2024/02/07 15:59:55;;;;;;;12.77;2.05;;;;;;;4.82;100.00;99417.31;10440091;28;20059;-81
2024/02/07 16:04:58;;;;;;;15.15;2.53;;;;;;;4.74;100.00;99406.38;10434007;28;20089;-80
2024/02/07 16:10:01;;;;;;;13.88;2.08;;;;;;;4.66;100.00;99394.59;10431762;28;21217;-81
2024/02/07 16:15:08;;;;;;;10.88;1.63;;;;;;;4.60;100.00;99391.44;10430215;28;21212;-82
2024/02/07 16:20:12;;;;;;;7.03;1.88;;;;;;;4.52;100.00;99391.13;10436353;28;20459;-82
2024/02/07 16:25:15;;;;;;;15.32;2.20;;;;;;;4.45;100.00;99391.69;10445529;28;20056;-81
2024/02/07 16:30:19;;;;;;;12.20;2.30;;;;;;;4.38;100.00;99399.25;10434578;28;20057;-81
2024/02/07 16:35:26;;;;;;;10.32;2.40;;;;;;;4.29;100.00;99402.56;10432707;28;20059;-82
2024/02/07 16:40:32;;;;;;;9.52;2.00;;;;;;;4.21;100.00;99392.47;10438548;28;20036;-81
2024/02/07 16:45:38;;;;;;;11.23;1.63;;;;;;;4.15;100.00;99393.75;10452354;28;20045;-82
2024/02/07 16:50:43;;;;;;;9.48;1.90;;;;;;;4.15;100.00;99399.06;10450471;28;20147;-83
2024/02/07 16:55:46;;;;;;;12.05;2.30;;;;;;;4.14;100.00;99400.03;10432236;28;20130;-80
2024/02/07 17:00:51;;;;;;;10.70;1.27;;;;;;;4.12;100.00;99403.75;10435512;28;20199;-81
2024/02/07 17:05:54;;;;;;;14.70;2.33;;;;;;;4.11;100.00;99408.22;10430619;28;20045;-81
2024/02/07 17:10:57;;;;;;;8.95;2.10;;;;;;;4.10;100.00;99405.66;10390540;28;20045;-79
2024/02/07 17:16:01;;;;;;;9.95;1.60;;;;;;;4.09;100.00;99409.28;10413198;28;20048;-82
2024/02/07 17:21:05;;;;;;;12.90;3.05;;;;;;;4.06;100.00;99410.34;10413496;28;20045;-80
2024/02/07 17:26:08;;;;;;;16.05;3.55;;;;;;;4.05;100.00;99400.66;10406544;28;20048;-80
2024/02/07 17:31:12;;;;;;;8.90;2.65;;;;;;;4.04;100.00;99401.63;10400289;28;20061;-83
2024/02/07 17:36:16;;;;;;;18.75;4.15;;;;;;;3.98;100.00;99407.38;10406071;28;20417;-79
2024/02/07 17:41:19;;;;;;;16.75;3.70;;;;;;;3.94;100.00;99404.06;10396823;28;20255;-81
2024/02/07 17:46:23;;;;;;;15.57;3.97;;;;;;;3.91;100.00;99393.63;10453390;28;20063;-82
2024/02/07 17:51:27;;;;;;;17.30;3.97;;;;;;;3.88;100.00;99388.53;10440222;28;20621;-78
2024/02/07 17:56:30;;;;;;;11.52;4.05;;;;;;;3.84;100.00;99392.38;10446616;28;21587;-80
2024/02/07 18:01:37;;;;;;;17.25;4.10;;;;;;;3.85;100.00;99398.53;10439904;28;20129;-80
2024/02/07 18:06:40;;;;;;;15.18;4.55;;;;;;;3.86;100.00;99387.78;10435724;28;20052;-81
2024/02/07 18:11:43;;;;;;;18.90;5.18;;;;;;;3.87;100.00;99375.38;10425079;28;20048;-80
2024/02/07 18:16:47;;;;;;;17.95;5.57;;;;;;;3.86;100.00;99365.69;10387748;28;20053;-80
2024/02/07 18:21:51;;;;;;;20.00;5.65;;;;;;;3.87;100.00;99372.72;10389508;28;20065;-81
2024/02/07 18:26:53;;;;;;;16.08;6.40;;;;;;;3.89;100.00;99362.81;10391536;28;20041;-80
2024/02/07 18:31:58;;;;;;;19.23;6.10;;;;;;;3.87;100.00;99367.41;10401780;28;20045;-79
2024/02/07 18:37:03;;;;;;;19.77;6.60;;;;;;;3.85;100.00;99380.78;10404127;28;20046;-79
2024/02/07 18:42:07;;;;;;;19.80;6.80;;;;;;;3.84;100.00;99367.59;10383246;28;20047;-81
2024/02/07 18:47:11;;;;;;;22.88;6.63;;;;;;;3.73;100.00;99369.22;10399507;28;20080;-81
2024/02/07 18:52:18;;;;;;;23.50;7.78;;;;;;;3.75;100.00;99376.22;10416993;28;20083;-80
2024/02/07 18:57:21;;;;;;;26.10;8.05;;;;;;;3.71;100.00;99381.75;10444467;28;20045;-81
2024/02/07 19:02:26;;;;;;;19.75;8.00;;;;;;;3.65;100.00;99376.00;10422186;28;21109;-80
2024/02/07 19:07:29;;;;;;;25.25;7.97;;;;;;;3.64;100.00;99379.59;10387878;28;21956;-80
2024/02/07 19:12:32;;;;;;;22.80;8.48;;;;;;;3.60;100.00;99375.47;10408395;28;20625;-80
2024/02/07 19:17:37;;;;;;;18.50;8.73;;;;;;;3.64;100.00;99368.97;10410812;28;20045;-79
2024/02/07 19:22:40;;;;;;;15.95;7.68;;;;;;;3.62;100.00;99366.44;10407077;28;20061;-79
2024/02/07 19:27:43;;;;;;;24.52;9.98;;;;;;;3.60;100.00;99363.03;10390986;28;20053;-77
2024/02/07 19:32:48;;;;;;;33.25;17.00;;;;;;;3.54;100.00;99357.28;10398780;28;20417;-77
2024/02/07 19:37:51;;;;;;;23.08;11.43;;;;;;;3.48;100.00;99354.09;10448160;28;20665;-77
2024/02/07 19:42:54;;;;;;;17.50;9.50;;;;;;;3.47;100.00;99355.03;10432222;28;20095;-79
2024/02/07 19:47:59;;;;;;;28.77;10.48;;;;;;;3.41;100.00;99357.28;10418042;28;20056;-79
2024/02/07 19:53:02;;;;;;;21.23;10.90;;;;;;;3.36;100.00;99348.78;10437339;28;20064;-78
2024/02/07 19:58:05;;;;;;;26.40;11.55;;;;;;;3.31;100.00;99341.09;10423195;28;20938;-80
2024/02/07 20:03:09;;;;;;;28.02;11.20;;;;;;;3.24;100.00;99346.00;10424874;28;20060;-79
2024/02/07 20:08:13;;;;;;;30.13;12.73;;;;;;;3.23;100.00;99338.13;10423770;28;20116;-80
2024/02/07 20:13:18;;;;;;;25.63;10.55;;;;;;;3.16;100.00;99339.50;10422750;28;20094;-79
2024/02/07 20:18:23;;;;;;;24.02;11.45;;;;;;;3.08;100.00;99334.69;10429934;28;20770;-78
2024/02/07 20:23:26;;;;;;;28.48;12.77;;;;;;;2.98;100.00;99331.78;10430230;28;20139;-79
2024/02/07 20:28:29;;;;;;;29.33;13.02;;;;;;;2.89;100.00;99316.50;10427267;28;20663;-80
2024/02/07 20:33:33;;;;;;;34.65;14.20;;;;;;;2.88;100.00;99321.88;10415199;28;20052;-79
2024/02/07 20:38:37;;;;;;;27.55;12.90;;;;;;;2.82;100.00;99331.09;10441999;28;20060;-79
2024/02/07 20:43:40;;;;;;;30.02;13.07;;;;;;;2.79;100.00;99332.16;10455957;28;20057;-79
2024/02/07 20:48:44;;;;;;;27.63;12.90;;;;;;;2.77;100.00;99341.16;10437135;28;20828;-80
2024/02/07 20:53:47;;;;;;;23.60;12.70;;;;;;;2.77;100.00;99322.59;10444735;28;20052;-80
2024/02/07 20:58:50;;;;;;;32.38;13.05;;;;;;;2.78;100.00;99324.31;10449385;28;20044;-79
2024/02/07 21:03:54;;;;;;;35.38;13.77;;;;;;;2.72;100.00;99312.31;10424284;28;20048;-79
2024/02/07 21:08:58;;;;;;;28.90;13.15;;;;;;;2.67;100.00;99310.91;10435806;28;20060;-78
2024/02/07 21:14:01;;;;;;;28.88;14.65;;;;;;;2.65;100.00;99303.03;10423360;28;20060;-79
2024/02/07 21:19:06;;;;;;;37.58;15.93;;;;;;;2.67;100.00;99295.00;10465994;28;20056;-79
2024/02/07 21:24:10;;;;;;;38.40;18.35;;;;;;;2.61;100.00;99301.56;10479491;28;20068;-79
2024/02/07 21:29:13;;;;;;;39.63;18.92;;;;;;;2.61;100.00;99305.06;10452479;28;20416;-78
2024/02/07 21:34:17;;;;;;;31.27;14.80;;;;;;;2.65;100.00;99310.16;10420619;28;20052;-78
2024/02/07 21:39:21;;;;;;;35.28;16.23;;;;;;;2.57;100.00;99318.59;10423835;28;20041;-79
2024/02/07 21:44:24;;;;;;;34.20;14.00;;;;;;;2.49;100.00;99321.69;10419530;28;20732;-78
2024/02/07 21:49:28;;;;;;;22.67;12.82;;;;;;;2.38;100.00;99319.75;10441264;28;20535;-78
2024/02/07 21:54:31;;;;;;;29.15;12.65;;;;;;;2.24;100.00;99309.19;10424131;28;20061;-79
2024/02/07 21:59:34;;;;;;;25.30;13.32;;;;;;;2.24;100.00;99297.72;10441310;28;20053;-77
2024/02/07 22:04:38;;;;;;;27.85;13.88;;;;;;;2.23;100.00;99307.50;10463654;28;20051;-78
2024/02/07 22:09:43;;;;;;;31.33;14.88;;;;;;;2.25;100.00;99296.78;10430187;28;20179;-78
2024/02/07 22:14:46;;;;;;;35.85;17.15;;;;;;;2.17;100.00;99313.19;10460996;28;20049;-80
2024/02/07 22:19:52;;;;;;;34.75;15.15;;;;;;;2.13;100.00;99323.09;10428621;28;20053;-77
2024/02/07 22:24:55;;;;;;;31.70;14.55;;;;;;;2.10;100.00;99317.16;10429348;28;20049;-80
2024/02/07 22:29:58;;;;;;;28.80;14.27;;;;;;;2.13;100.00;99307.22;10455727;28;20051;-80
2024/02/07 22:35:03;;;;;;;34.70;15.98;;;;;;;2.10;100.00;99314.50;10414708;28;20049;-81
2024/02/07 22:40:07;;;;;;;38.13;17.25;;;;;;;2.03;100.00;99313.19;10428182;28;20043;-81
2024/02/07 22:45:10;;;;;;;24.10;14.00;;;;;;;1.95;100.00;99309.22;10425354;28;20052;-80
2024/02/07 22:50:15;;;;;;;26.67;12.98;;;;;;;1.91;100.00;99301.56;10445337;28;20049;-82
2024/02/07 22:55:18;;;;;;;24.35;12.60;;;;;;;1.84;100.00;99301.09;10459039;28;20048;-80
2024/02/07 23:00:23;;;;;;;29.48;12.85;;;;;;;1.87;100.00;99298.25;10440660;28;20049;-80
2024/02/07 23:05:27;;;;;;;29.50;13.38;;;;;;;1.81;100.00;99295.13;10428722;28;20052;-80
2024/02/07 23:10:30;;;;;;;28.25;12.50;;;;;;;1.75;100.00;99300.81;10441704;28;20057;-80
2024/02/07 23:15:33;;;;;;;30.55;16.63;;;;;;;1.85;100.00;99288.72;10443639;28;20717;-79
2024/02/07 23:20:37;;;;;;;36.58;15.90;;;;;;;1.87;100.00;99300.06;10434074;28;20427;-80
2024/02/07 23:25:41;;;;;;;49.58;23.80;;;;;;;1.92;100.00;99297.94;10427112;28;20045;-78
2024/02/07 23:30:45;;;;;;;34.28;16.92;;;;;;;1.92;100.00;99304.13;10463425;28;20041;-80
2024/02/07 23:35:49;;;;;;;38.70;15.02;;;;;;;1.96;100.00;99302.13;10445317;28;21078;-81
2024/02/07 23:40:52;;;;;;;41.53;14.35;;;;;;;2.00;100.00;99295.69;10414940;28;20057;-82
2024/02/07 23:45:55;;;;;;;47.65;19.83;;;;;;;1.92;100.00;99290.00;10415384;28;20167;-79
2024/02/07 23:50:59;;;;;;;43.83;17.77;;;;;;;1.87;100.00;99292.97;10414370;28;20531;-82
2024/02/07 23:56:02;;;;;;;32.35;13.10;;;;;;;1.85;100.00;99286.91;10422100;28;20051;-81
